createdAt,value
2023-03-03T00:00:17.590Z,66.09
2023-03-03T00:02:19.930Z,66.56
2023-03-03T00:04:23.119Z,66.63
2023-03-03T00:06:26.167Z,66.96
2023-03-03T00:08:28.732Z,66.75
2023-03-03T00:10:31.538Z,66.68
2023-03-03T00:12:35.861Z,67.58
2023-03-03T00:14:38.100Z,67.25
2023-03-03T00:16:40.966Z,67.60
2023-03-03T00:18:47.254Z,67.64
2023-03-03T00:20:59.037Z,67.13
2023-03-03T00:23:32.291Z,67.00
2023-03-03T00:25:34.926Z,66.37
2023-03-03T00:27:37.430Z,66.75
2023-03-03T00:29:46.167Z,66.60
2023-03-03T00:31:48.437Z,67.20
2023-03-03T00:33:55.092Z,67.07
2023-03-03T00:35:57.915Z,67.64
2023-03-03T00:38:02.401Z,67.53
2023-03-03T00:40:31.393Z,67.53
2023-03-03T00:42:36.501Z,67.66
2023-03-03T00:44:43.274Z,67.29
2023-03-03T00:46:45.611Z,67.99
2023-03-03T00:48:50.416Z,67.99
2023-03-03T00:50:54.725Z,68.66
2023-03-03T00:53:04.781Z,67.97
2023-03-03T00:55:08.787Z,68.19
2023-03-03T00:57:15.218Z,68.60
2023-03-03T00:59:19.406Z,68.87
2023-03-03T01:01:22.126Z,68.95
2023-03-03T01:03:27.767Z,68.75
2023-03-03T01:05:30.946Z,68.98
2023-03-03T01:07:33.429Z,68.94
2023-03-03T01:09:35.738Z,68.60
2023-03-03T01:11:37.964Z,68.29
2023-03-03T01:13:43.076Z,68.45
2023-03-03T01:15:46.113Z,68.66
2023-03-03T01:17:49.549Z,68.63
2023-03-03T01:19:52.129Z,69.11
2023-03-03T01:21:54.801Z,69.39
2023-03-03T01:23:57.127Z,69.17
2023-03-03T01:25:59.423Z,68.82
2023-03-03T01:28:01.687Z,68.47
2023-03-03T01:30:06.041Z,68.83
2023-03-03T01:32:08.297Z,68.91
2023-03-03T01:34:10.684Z,69.12
2023-03-03T01:36:12.960Z,69.01
2023-03-03T01:38:16.399Z,69.56
2023-03-03T01:40:22.685Z,69.58
2023-03-03T01:42:29.476Z,70.37
2023-03-03T01:44:31.664Z,69.51
2023-03-03T01:46:51.623Z,70.07
2023-03-03T01:49:03.415Z,70.50
2023-03-03T01:51:23.991Z,70.12
2023-03-03T01:53:34.346Z,70.44
2023-03-03T01:55:39.546Z,70.64
2023-03-03T01:57:47.222Z,70.44
2023-03-03T01:59:51.996Z,70.74
2023-03-03T02:01:54.382Z,70.43
2023-03-03T02:03:57.366Z,70.37
2023-03-03T02:06:06.450Z,70.85
2023-03-03T02:08:12.743Z,70.12
2023-03-03T02:10:18.540Z,70.57
2023-03-03T02:12:26.516Z,70.56
2023-03-03T02:14:29.015Z,70.82
2023-03-03T02:16:31.673Z,70.34
2023-03-03T02:18:35.264Z,70.04
2023-03-03T02:20:43.384Z,70.72
2023-03-03T02:23:06.793Z,70.42
2023-03-03T02:25:16.112Z,70.03
2023-03-03T02:27:18.497Z,70.30
2023-03-03T02:29:21.617Z,70.35
2023-03-03T02:31:27.950Z,70.04
2023-03-03T02:33:30.871Z,70.13
2023-03-03T02:35:37.872Z,69.79
2023-03-03T02:37:40.799Z,70.01
2023-03-03T02:39:44.012Z,70.13
2023-03-03T02:42:02.761Z,70.05
2023-03-03T02:44:28.330Z,69.99
2023-03-03T02:46:35.906Z,69.77
2023-03-03T02:48:38.347Z,69.81
2023-03-03T02:50:40.821Z,69.85
2023-03-03T02:52:43.223Z,69.99
2023-03-03T02:54:45.606Z,70.03
2023-03-03T02:56:48.089Z,70.01
2023-03-03T02:58:50.450Z,69.79
2023-03-03T03:00:53.268Z,69.79
2023-03-03T03:02:59.285Z,70.39
2023-03-03T03:05:02.308Z,70.13
2023-03-03T03:07:04.936Z,70.31
2023-03-03T03:09:11.025Z,70.21
2023-03-03T03:11:13.484Z,70.21
2023-03-03T03:13:16.060Z,69.82
2023-03-03T03:15:20.083Z,69.26
2023-03-03T03:17:23.191Z,69.67
2023-03-03T03:19:28.485Z,69.73
2023-03-03T03:21:33.137Z,69.50
2023-03-03T03:23:36.673Z,69.08
2023-03-03T03:25:45.685Z,69.45
2023-03-03T03:27:53.962Z,68.91
2023-03-03T03:29:56.322Z,69.38
2023-03-03T03:31:59.574Z,69.49
2023-03-03T03:34:01.931Z,69.86
2023-03-03T03:36:06.818Z,69.45
2023-03-03T03:38:09.907Z,69.58
2023-03-03T03:40:12.656Z,69.57
2023-03-03T03:42:15.204Z,69.49
2023-03-03T03:44:17.414Z,69.37
2023-03-03T03:46:20.008Z,69.28
2023-03-03T03:48:22.450Z,69.83
2023-03-03T03:50:25.083Z,69.35
2023-03-03T03:52:27.552Z,70.07
2023-03-03T03:54:29.937Z,70.50
2023-03-03T03:56:32.945Z,69.43
2023-03-03T03:58:36.974Z,69.88
2023-03-03T04:00:44.454Z,69.61
2023-03-03T04:02:46.972Z,69.89
2023-03-03T04:04:51.626Z,69.63
2023-03-03T04:06:54.075Z,69.62
2023-03-03T04:08:56.457Z,69.91
2023-03-03T04:10:59.313Z,69.80
2023-03-03T04:13:02.675Z,69.76
2023-03-03T04:15:11.340Z,70.02
2023-03-03T04:17:21.235Z,69.89
2023-03-03T04:19:24.587Z,70.26
2023-03-03T04:21:28.155Z,70.70
2023-03-03T04:23:33.244Z,70.44
2023-03-03T04:25:37.049Z,70.50
2023-03-03T04:27:47.143Z,70.67
2023-03-03T04:29:51.554Z,70.25
2023-03-03T04:31:54.137Z,70.79
2023-03-03T04:33:57.311Z,70.34
2023-03-03T04:35:59.854Z,70.86
2023-03-03T04:38:02.763Z,70.52
2023-03-03T04:40:07.761Z,70.42
2023-03-03T04:42:10.475Z,70.51
2023-03-03T04:44:13.219Z,70.16
2023-03-03T04:46:15.882Z,70.46
2023-03-03T04:48:19.034Z,70.11
2023-03-03T04:50:21.683Z,70.12
2023-03-03T04:52:24.807Z,70.27
2023-03-03T04:54:27.233Z,70.31
2023-03-03T04:56:31.950Z,70.79
2023-03-03T04:58:36.117Z,70.48
2023-03-03T05:00:39.599Z,70.13
2023-03-03T05:02:43.655Z,70.26
2023-03-03T05:04:48.784Z,70.03
2023-03-03T05:06:51.255Z,70.26
2023-03-03T05:08:53.468Z,69.94
2023-03-03T05:10:56.153Z,70.39
2023-03-03T05:12:58.718Z,69.75
2023-03-03T05:15:01.764Z,69.71
2023-03-03T05:17:04.966Z,69.56
2023-03-03T05:19:07.360Z,70.16
2023-03-03T05:21:09.803Z,70.24
2023-03-03T05:23:12.267Z,70.21
2023-03-03T05:25:15.025Z,70.15
2023-03-03T05:27:18.179Z,70.48
2023-03-03T05:29:20.435Z,71.12
2023-03-03T05:31:23.864Z,70.61
2023-03-03T05:33:26.424Z,70.60
2023-03-03T05:35:29.503Z,71.40
2023-03-03T05:37:32.023Z,70.55
2023-03-03T05:39:35.554Z,71.13
2023-03-03T05:41:37.774Z,71.23
2023-03-03T05:43:40.934Z,70.72
2023-03-03T05:45:43.730Z,71.25
2023-03-03T05:47:46.729Z,70.81
2023-03-03T05:49:49.336Z,71.11
2023-03-03T05:51:51.714Z,71.00
2023-03-03T05:53:56.391Z,71.11
2023-03-03T05:55:58.934Z,70.93
2023-03-03T05:58:01.284Z,70.71
2023-03-03T06:00:06.704Z,71.01
2023-03-03T06:02:15.526Z,71.00
2023-03-03T06:04:18.162Z,70.98
2023-03-03T06:06:20.976Z,70.73
2023-03-03T06:08:23.673Z,70.84
2023-03-03T06:10:26.242Z,71.00
2023-03-03T06:12:31.888Z,70.68
2023-03-03T06:14:34.293Z,70.97
2023-03-03T06:16:36.926Z,71.00
2023-03-03T06:18:39.513Z,71.60
2023-03-03T06:20:41.935Z,70.52
2023-03-03T06:22:47.287Z,71.18
2023-03-03T06:24:53.569Z,70.54
2023-03-03T06:26:59.471Z,70.69
2023-03-03T06:29:02.405Z,70.95
2023-03-03T06:31:05.379Z,70.99
2023-03-03T06:33:14.151Z,70.41
2023-03-03T06:35:19.488Z,70.80
2023-03-03T06:37:21.971Z,70.57
2023-03-03T06:39:24.248Z,70.99
2023-03-03T06:41:26.482Z,70.51
2023-03-03T06:43:31.418Z,70.70
2023-03-03T06:45:36.374Z,70.66
2023-03-03T06:47:38.824Z,70.97
2023-03-03T06:49:41.576Z,70.88
2023-03-03T06:51:46.596Z,71.15
2023-03-03T06:53:53.664Z,70.88
2023-03-03T06:55:58.406Z,71.15
2023-03-03T06:58:02.172Z,70.88
2023-03-03T07:00:23.854Z,71.38
2023-03-03T07:02:26.191Z,71.17
2023-03-03T07:04:34.460Z,71.21
2023-03-03T07:06:37.778Z,71.72
2023-03-03T07:08:41.852Z,71.20
2023-03-03T07:10:45.926Z,71.18
2023-03-03T07:12:48.209Z,70.61
2023-03-03T07:15:01.157Z,70.63
2023-03-03T07:17:10.923Z,70.63
2023-03-03T07:19:33.775Z,70.79
2023-03-03T07:21:38.196Z,70.74
2023-03-03T07:23:42.938Z,71.11
2023-03-03T07:25:47.059Z,70.71
2023-03-03T07:27:49.909Z,70.91
2023-03-03T07:29:55.497Z,70.96
2023-03-03T07:31:59.726Z,70.48
2023-03-03T07:34:05.317Z,70.46
2023-03-03T07:36:30.814Z,70.28
2023-03-03T07:38:40.454Z,70.74
2023-03-03T07:40:57.406Z,70.25
2023-03-03T07:43:00.127Z,70.62
2023-03-03T07:45:28.205Z,70.05
2023-03-03T07:47:36.009Z,70.58
2023-03-03T07:49:39.153Z,70.55
2023-03-03T07:51:44.393Z,70.52
2023-03-03T07:53:47.695Z,70.20
2023-03-03T07:55:50.638Z,70.84
2023-03-03T07:57:59.137Z,69.97
2023-03-03T08:00:34.185Z,70.22
2023-03-03T08:02:47.755Z,70.04
2023-03-03T08:04:52.962Z,70.07
2023-03-03T08:07:03.421Z,70.76
2023-03-03T08:09:11.846Z,69.90
2023-03-03T08:11:14.222Z,69.98
2023-03-03T08:13:22.521Z,70.31
2023-03-03T08:15:32.344Z,70.59
2023-03-03T08:17:39.476Z,70.42
2023-03-03T08:19:41.949Z,69.83
2023-03-03T08:21:45.621Z,70.41
2023-03-03T08:23:52.169Z,69.92
2023-03-03T08:25:54.949Z,70.09
2023-03-03T08:27:57.355Z,69.72
2023-03-03T08:29:59.906Z,69.40
2023-03-03T08:32:02.858Z,69.90
2023-03-03T08:34:05.770Z,69.75
2023-03-03T08:36:11.573Z,70.08
2023-03-03T08:38:16.908Z,70.15
2023-03-03T08:40:19.533Z,70.22
2023-03-03T08:42:22.192Z,69.93
2023-03-03T08:44:24.818Z,70.58
2023-03-03T08:46:28.992Z,69.96
2023-03-03T08:48:32.744Z,69.78
2023-03-03T08:50:35.352Z,69.98
2023-03-03T08:52:37.846Z,69.54
2023-03-03T08:54:40.240Z,69.64
2023-03-03T08:56:42.636Z,69.93
2023-03-03T08:59:03.834Z,69.33
2023-03-03T09:01:06.359Z,69.58
2023-03-03T09:03:09.038Z,69.41
2023-03-03T09:05:12.756Z,69.43
2023-03-03T09:07:15.555Z,69.86
2023-03-03T09:09:18.052Z,70.00
2023-03-03T09:11:27.039Z,70.12
2023-03-03T09:13:31.909Z,70.24
2023-03-03T09:15:38.137Z,69.30
2023-03-03T09:17:41.311Z,69.16
2023-03-03T09:19:44.281Z,68.87
2023-03-03T09:21:47.415Z,68.86
2023-03-03T09:23:56.604Z,69.03
2023-03-03T09:26:17.996Z,69.08
2023-03-03T09:28:32.296Z,68.96
2023-03-03T09:30:39.846Z,68.63
2023-03-03T09:32:43.530Z,68.34
2023-03-03T09:34:47.626Z,69.21
2023-03-03T09:36:52.249Z,69.06
2023-03-03T09:38:57.358Z,68.52
2023-03-03T09:41:16.529Z,69.38
2023-03-03T09:43:47.608Z,68.68
2023-03-03T09:45:54.178Z,68.71
2023-03-03T09:48:12.687Z,69.09
2023-03-03T09:50:18.168Z,68.56
2023-03-03T09:52:48.126Z,68.25
2023-03-03T09:54:57.353Z,68.69
2023-03-03T09:57:36.992Z,68.87
2023-03-03T10:00:08.222Z,68.52
2023-03-03T10:02:23.191Z,68.13
2023-03-03T10:04:41.388Z,68.99
2023-03-03T10:07:12.181Z,68.25
2023-03-03T10:09:56.737Z,68.71
2023-03-03T10:12:22.877Z,69.01
2023-03-03T10:14:48.871Z,68.79
2023-03-03T10:17:02.228Z,68.62
2023-03-03T10:19:29.372Z,68.75
2023-03-03T10:21:41.096Z,68.86
2023-03-03T10:24:01.804Z,68.20
2023-03-03T10:26:43.559Z,68.66
2023-03-03T10:28:58.948Z,68.86
2023-03-03T10:31:30.791Z,68.42
2023-03-03T10:33:39.257Z,67.95
2023-03-03T10:35:41.960Z,67.49
2023-03-03T10:37:56.611Z,67.87
2023-03-03T10:40:22.345Z,67.96
2023-03-03T10:42:40.752Z,67.92
2023-03-03T10:45:20.844Z,67.71
2023-03-03T10:47:36.142Z,68.28
2023-03-03T10:49:53.791Z,67.74
2023-03-03T10:52:41.964Z,67.50
2023-03-03T10:55:22.429Z,67.11
2023-03-03T10:57:53.029Z,67.82
2023-03-03T11:00:19.858Z,67.87
2023-03-03T11:02:57.192Z,67.70
2023-03-03T11:05:30.687Z,67.93
2023-03-03T11:08:04.968Z,67.73
2023-03-03T11:10:37.335Z,67.66
2023-03-03T11:13:04.690Z,67.66
2023-03-03T11:15:31.413Z,67.36
2023-03-03T11:18:12.343Z,67.02
2023-03-03T11:20:45.504Z,67.24
2023-03-03T11:23:16.134Z,66.76
2023-03-03T11:25:34.596Z,66.37
2023-03-03T11:28:01.818Z,66.56
2023-03-03T11:30:19.164Z,67.21
2023-03-03T11:32:34.055Z,67.06
2023-03-03T11:34:46.892Z,67.20
2023-03-03T11:36:56.447Z,67.16
2023-03-03T11:39:02.467Z,66.63
2023-03-03T11:41:27.958Z,66.75
2023-03-03T11:43:42.703Z,66.46
2023-03-03T11:45:54.308Z,66.49
2023-03-03T11:48:19.654Z,66.37
2023-03-03T11:50:30.010Z,66.72
2023-03-03T11:53:14.146Z,66.95
2023-03-03T11:55:23.918Z,66.72
2023-03-03T11:57:43.850Z,66.14
2023-03-03T11:59:49.621Z,66.75
2023-03-03T12:02:13.786Z,65.32
2023-03-03T12:04:22.779Z,65.93
2023-03-03T12:06:42.285Z,65.15
2023-03-03T12:09:02.600Z,64.52
2023-03-03T12:11:13.512Z,64.30
2023-03-03T12:13:43.069Z,65.15
2023-03-03T12:16:00.214Z,64.65
2023-03-03T12:18:25.425Z,65.00
2023-03-03T12:20:49.929Z,64.89
2023-03-03T12:23:07.237Z,65.08
2023-03-03T12:25:18.752Z,64.78
2023-03-03T12:27:42.421Z,65.07
2023-03-03T12:30:13.886Z,64.28
2023-03-03T12:32:28.144Z,64.06
2023-03-03T12:34:42.613Z,64.33
2023-03-03T12:37:19.931Z,63.51
2023-03-03T12:39:43.880Z,63.91
2023-03-03T12:41:46.406Z,63.41
2023-03-03T12:43:51.667Z,63.71
2023-03-03T12:46:12.642Z,63.76
2023-03-03T12:48:17.648Z,63.13
2023-03-03T12:50:31.734Z,62.79
2023-03-03T12:53:10.599Z,63.71
2023-03-03T12:55:53.634Z,63.44
2023-03-03T12:58:25.962Z,63.35
2023-03-03T13:00:53.814Z,63.51
2023-03-03T13:03:28.373Z,63.20
2023-03-03T13:05:47.301Z,64.44
2023-03-03T13:08:09.086Z,64.03
2023-03-03T13:10:14.325Z,64.36
2023-03-03T13:12:57.231Z,63.34
2023-03-03T13:15:12.521Z,64.37
2023-03-03T13:17:15.543Z,63.91
2023-03-03T13:19:27.494Z,63.56
2023-03-03T13:21:46.417Z,63.66
2023-03-03T13:24:29.358Z,63.17
2023-03-03T13:26:56.452Z,63.39
2023-03-03T13:29:22.534Z,63.99
2023-03-03T13:31:48.419Z,64.37
2023-03-03T13:33:59.273Z,64.02
2023-03-03T13:36:07.940Z,63.79
2023-03-03T13:38:18.832Z,62.81
2023-03-03T13:40:25.593Z,62.80
2023-03-03T13:42:51.392Z,63.44
2023-03-03T13:44:57.175Z,63.12
2023-03-03T13:47:18.186Z,63.13
2023-03-03T13:49:58.996Z,62.88
2023-03-03T13:52:10.882Z,63.40
2023-03-03T13:54:50.290Z,63.36
2023-03-03T13:57:31.530Z,63.19
2023-03-03T13:59:48.614Z,63.16
2023-03-03T14:02:07.104Z,62.52
2023-03-03T14:04:21.431Z,63.45
2023-03-03T14:06:30.257Z,62.23
2023-03-03T14:08:32.604Z,62.35
2023-03-03T14:10:58.999Z,63.46
2023-03-03T14:13:18.268Z,62.80
2023-03-03T14:15:37.153Z,63.13
2023-03-03T14:18:08.324Z,62.93
2023-03-03T14:20:13.718Z,64.23
2023-03-03T14:22:26.177Z,63.70
2023-03-03T14:24:29.829Z,63.87
2023-03-03T14:26:32.137Z,63.60
2023-03-03T14:28:51.648Z,63.70
2023-03-03T14:30:58.065Z,63.50
2023-03-03T14:33:09.709Z,63.04
2023-03-03T14:35:21.392Z,64.08
2023-03-03T14:37:25.662Z,64.32
2023-03-03T14:39:36.182Z,64.43
2023-03-03T14:41:42.592Z,63.58
2023-03-03T14:44:30.152Z,64.07
2023-03-03T14:46:38.737Z,63.72
2023-03-03T14:48:51.807Z,63.84
2023-03-03T14:51:04.850Z,63.92
2023-03-03T14:53:10.854Z,64.35
2023-03-03T14:55:34.941Z,64.56
2023-03-03T14:57:47.046Z,64.76
2023-03-03T14:59:58.805Z,64.90
2023-03-03T15:02:29.843Z,64.27
2023-03-03T15:04:32.799Z,64.45
2023-03-03T15:06:37.893Z,65.05
2023-03-03T15:08:42.911Z,65.18
2023-03-03T15:10:46.405Z,65.33
2023-03-03T15:12:48.803Z,65.32
2023-03-03T15:15:23.141Z,64.82
2023-03-03T15:17:28.859Z,65.04
2023-03-03T15:19:58.311Z,64.93
2023-03-03T15:22:14.891Z,64.75
2023-03-03T15:24:31.942Z,65.03
2023-03-03T15:26:55.110Z,64.54
2023-03-03T15:29:22.842Z,65.06
2023-03-03T15:31:40.522Z,64.66
2023-03-03T15:34:01.448Z,64.49
2023-03-03T15:36:25.848Z,64.42
2023-03-03T15:38:48.574Z,64.43
2023-03-03T15:41:26.289Z,64.76
2023-03-03T15:43:46.461Z,64.72
2023-03-03T15:46:16.339Z,64.33
2023-03-03T15:48:42.552Z,64.94
2023-03-03T15:51:22.178Z,64.00
2023-03-03T15:53:38.801Z,64.62
2023-03-03T15:55:59.839Z,65.28
2023-03-03T15:58:30.046Z,64.92
2023-03-03T16:00:37.127Z,64.52
2023-03-03T16:02:51.233Z,64.40
2023-03-03T16:05:00.645Z,64.43
2023-03-03T16:07:38.287Z,64.62
2023-03-03T16:10:27.718Z,64.94
2023-03-03T16:13:00.965Z,64.69
2023-03-03T16:15:03.621Z,65.17
2023-03-03T16:17:11.672Z,65.04
2023-03-03T16:19:24.802Z,64.48
2023-03-03T16:21:45.118Z,64.71
2023-03-03T16:23:56.875Z,64.82
2023-03-03T16:26:14.445Z,65.15
2023-03-03T16:28:47.977Z,64.77
2023-03-03T16:31:01.496Z,64.30
2023-03-03T16:33:19.984Z,65.04
2023-03-03T16:35:24.641Z,65.34
2023-03-03T16:38:00.662Z,64.94
2023-03-03T16:40:28.748Z,64.92
2023-03-03T16:42:33.686Z,65.84
2023-03-03T16:44:57.518Z,65.24
2023-03-03T16:47:27.125Z,65.25
2023-03-03T16:50:09.387Z,65.74
2023-03-03T16:52:20.370Z,65.93
2023-03-03T16:54:36.025Z,65.44
2023-03-03T16:56:49.319Z,65.82
2023-03-03T16:59:11.734Z,66.00
2023-03-03T17:01:35.160Z,65.64
2023-03-03T17:03:46.430Z,65.76
2023-03-03T17:06:11.468Z,65.28
2023-03-03T17:08:44.068Z,65.81
2023-03-03T17:10:58.280Z,65.47
2023-03-03T17:13:25.202Z,64.58
2023-03-03T17:16:03.360Z,65.46
2023-03-03T17:18:33.693Z,65.19
2023-03-03T17:20:50.901Z,65.17
2023-03-03T17:23:15.310Z,65.07
2023-03-03T17:25:23.396Z,64.83
2023-03-03T17:27:37.590Z,64.94
2023-03-03T17:29:49.796Z,65.09
2023-03-03T17:32:09.119Z,65.47
2023-03-03T17:34:25.087Z,65.24
2023-03-03T17:37:09.236Z,65.04
2023-03-03T17:39:31.884Z,65.64
2023-03-03T17:41:55.465Z,65.36
2023-03-03T17:44:08.799Z,65.51
2023-03-03T17:46:16.487Z,65.19
2023-03-03T17:48:49.775Z,65.02
2023-03-03T17:51:17.708Z,65.76
2023-03-03T17:53:34.184Z,65.20
2023-03-03T17:55:56.540Z,65.67
2023-03-03T17:58:14.033Z,65.00
2023-03-03T18:00:27.448Z,65.42
2023-03-03T18:02:38.741Z,65.55
2023-03-03T18:05:02.756Z,64.95
2023-03-03T18:07:28.336Z,66.04
2023-03-03T18:09:39.776Z,64.99
2023-03-03T18:12:04.949Z,65.64
2023-03-03T18:14:16.278Z,65.95
2023-03-03T18:16:46.173Z,65.61
2023-03-03T18:19:11.912Z,66.34
2023-03-03T18:21:25.216Z,66.81
2023-03-03T18:23:49.046Z,66.54
2023-03-03T18:25:59.152Z,66.29
2023-03-03T18:28:01.696Z,66.45
2023-03-03T18:30:20.733Z,66.03
2023-03-03T18:32:24.703Z,66.29
2023-03-03T18:34:38.548Z,66.53
2023-03-03T18:36:57.580Z,65.98
2023-03-03T18:39:06.751Z,65.68
2023-03-03T18:41:21.906Z,65.90
2023-03-03T18:43:43.671Z,65.42
2023-03-03T18:45:46.570Z,66.04
2023-03-03T18:48:09.487Z,66.31
2023-03-03T18:50:34.333Z,65.53
2023-03-03T18:52:37.472Z,65.48
2023-03-03T18:54:41.794Z,65.99
2023-03-03T18:56:53.278Z,65.33
2023-03-03T18:58:55.996Z,65.16
2023-03-03T19:01:26.908Z,65.11
2023-03-03T19:03:37.612Z,65.95
2023-03-03T19:05:49.533Z,65.66
2023-03-03T19:08:00.905Z,65.61
2023-03-03T19:10:14.724Z,65.87
2023-03-03T19:12:19.036Z,65.93
2023-03-03T19:14:29.464Z,65.75
2023-03-03T19:16:37.213Z,65.64
2023-03-03T19:18:42.878Z,65.77
2023-03-03T19:20:51.308Z,65.55
2023-03-03T19:23:05.838Z,65.33
2023-03-03T19:25:17.576Z,65.72
2023-03-03T19:27:36.306Z,65.06
2023-03-03T19:29:41.900Z,65.50
2023-03-03T19:31:58.985Z,65.11
2023-03-03T19:34:08.121Z,65.00
2023-03-03T19:36:44.439Z,65.39
2023-03-03T19:38:58.197Z,65.43
2023-03-03T19:41:09.403Z,65.70
2023-03-03T19:43:52.878Z,64.82
2023-03-03T19:46:18.498Z,65.94
2023-03-03T19:48:31.704Z,64.97
2023-03-03T19:50:44.354Z,65.20
2023-03-03T19:53:00.721Z,65.11
2023-03-03T19:55:15.290Z,65.50
2023-03-03T19:57:43.140Z,65.82
2023-03-03T20:00:08.247Z,65.30
2023-03-03T20:02:14.399Z,65.11
2023-03-03T20:04:43.668Z,65.36
2023-03-03T20:06:54.712Z,66.08
2023-03-03T20:09:20.286Z,65.61
2023-03-03T20:12:10.320Z,65.23
2023-03-03T20:14:21.479Z,65.60
2023-03-03T20:16:42.352Z,65.20
2023-03-03T20:19:01.908Z,65.71
2023-03-03T20:21:31.390Z,65.05
2023-03-03T20:23:37.255Z,66.09
2023-03-03T20:25:51.450Z,65.78
2023-03-03T20:28:03.882Z,65.36
2023-03-03T20:30:17.814Z,65.93
2023-03-03T20:32:44.257Z,65.14
2023-03-03T20:34:47.311Z,65.87
2023-03-03T20:37:06.152Z,65.66
2023-03-03T20:39:16.504Z,65.30
2023-03-03T20:41:22.312Z,65.56
2023-03-03T20:43:47.845Z,65.12
2023-03-03T20:46:08.753Z,65.46
2023-03-03T20:48:30.584Z,65.65
2023-03-03T20:50:40.668Z,66.48
2023-03-03T20:53:02.587Z,66.20
2023-03-03T20:55:20.618Z,65.91
2023-03-03T20:57:34.483Z,65.15
2023-03-03T20:59:50.822Z,65.60
2023-03-03T21:02:29.959Z,66.26
2023-03-03T21:04:35.539Z,66.30
2023-03-03T21:06:41.497Z,65.99
2023-03-03T21:08:55.471Z,65.85
2023-03-03T21:10:58.166Z,65.77
2023-03-03T21:13:26.567Z,66.00
2023-03-03T21:15:30.924Z,65.69
2023-03-03T21:17:34.146Z,65.79
2023-03-03T21:19:36.994Z,66.46
2023-03-03T21:21:42.986Z,66.27
2023-03-03T21:23:45.905Z,66.30
2023-03-03T21:25:56.672Z,65.72
2023-03-03T21:28:25.367Z,66.41
2023-03-03T21:30:28.304Z,66.33
2023-03-03T21:32:45.338Z,65.52
2023-03-03T21:35:04.855Z,65.74
2023-03-03T21:37:31.707Z,65.68
2023-03-03T21:39:45.075Z,65.72
2023-03-03T21:41:58.896Z,66.37
2023-03-03T21:44:01.518Z,66.66
2023-03-03T21:46:03.935Z,66.63
2023-03-03T21:48:07.142Z,66.97
2023-03-03T21:50:11.696Z,66.83
2023-03-03T21:52:16.688Z,66.44
2023-03-03T21:54:19.451Z,67.01
2023-03-03T21:56:21.788Z,66.80
2023-03-03T21:58:24.148Z,66.68
2023-03-03T22:00:26.668Z,67.05
2023-03-03T22:02:29.249Z,66.49
2023-03-03T22:04:31.639Z,66.76
2023-03-03T22:06:34.136Z,67.00
2023-03-03T22:08:37.062Z,66.44
2023-03-03T22:10:39.902Z,66.83
2023-03-03T22:12:43.312Z,66.96
2023-03-03T22:14:45.977Z,66.69
2023-03-03T22:16:48.649Z,66.77
2023-03-03T22:18:51.150Z,66.93
2023-03-03T22:20:54.033Z,66.39
2023-03-03T22:22:56.405Z,66.96
2023-03-03T22:24:59.321Z,66.75
2023-03-03T22:27:01.782Z,67.48
2023-03-03T22:29:05.809Z,67.85
2023-03-03T22:31:08.368Z,67.55
2023-03-03T22:33:11.091Z,67.77
2023-03-03T22:35:13.756Z,67.60
2023-03-03T22:37:16.374Z,67.79
2023-03-03T22:39:19.086Z,67.43
2023-03-03T22:41:21.886Z,67.96
2023-03-03T22:43:26.246Z,67.90
2023-03-03T22:45:28.710Z,67.87
2023-03-03T22:47:33.128Z,68.35
2023-03-03T22:49:40.948Z,67.81
2023-03-03T22:51:43.445Z,67.91
2023-03-03T22:53:48.131Z,67.29
2023-03-03T22:55:50.871Z,67.67
2023-03-03T22:57:59.519Z,67.94
2023-03-03T23:00:08.507Z,67.28
2023-03-03T23:02:10.857Z,68.18
2023-03-03T23:04:13.562Z,67.54
2023-03-03T23:06:16.709Z,67.84
2023-03-03T23:08:20.648Z,67.96
2023-03-03T23:10:23.338Z,67.73
2023-03-03T23:12:25.898Z,67.60
2023-03-03T23:14:28.767Z,67.31
2023-03-03T23:16:31.038Z,67.89
2023-03-03T23:18:33.825Z,68.40
2023-03-03T23:20:36.632Z,67.46
2023-03-03T23:22:39.305Z,67.99
2023-03-03T23:24:43.347Z,67.93
2023-03-03T23:26:45.978Z,68.10
2023-03-03T23:28:48.240Z,68.45
2023-03-03T23:30:52.345Z,68.26
2023-03-03T23:32:54.799Z,68.18
2023-03-03T23:34:57.208Z,68.26
2023-03-03T23:36:59.544Z,68.17
2023-03-03T23:39:02.287Z,68.14
2023-03-03T23:41:05.274Z,68.04
2023-03-03T23:43:07.849Z,67.88
2023-03-03T23:45:12.339Z,67.66
2023-03-03T23:47:14.670Z,67.88
2023-03-03T23:49:16.879Z,68.14
2023-03-03T23:51:19.412Z,68.18
2023-03-03T23:53:21.631Z,68.19
2023-03-03T23:55:24.419Z,67.68
2023-03-03T23:57:27.111Z,67.96
2023-03-03T23:59:30.182Z,68.78
